createdAt,value
2018-11-11T00:01:20.360Z,11.40
2018-11-11T00:03:55.754Z,11.30
2018-11-11T00:06:23.911Z,11.30
2018-11-11T00:08:52.042Z,11.20
2018-11-11T00:11:28.633Z,11.20
2018-11-11T00:13:56.619Z,11.20
2018-11-11T00:16:27.958Z,11.10
2018-11-11T00:18:59.036Z,11.10
2018-11-11T00:21:27.157Z,11.10
2018-11-11T00:23:55.693Z,11.10
2018-11-11T00:26:24.502Z,11.00
2018-11-11T00:28:52.584Z,11.10
2018-11-11T00:31:20.564Z,11.10
2018-11-11T00:33:48.530Z,11.20
2018-11-11T00:36:16.601Z,11.30
2018-11-11T00:38:44.747Z,11.30
2018-11-11T00:41:12.948Z,11.40
2018-11-11T00:43:40.904Z,11.40
2018-11-11T00:46:08.918Z,11.40
2018-11-11T00:48:36.871Z,11.40
2018-11-11T00:51:06.642Z,11.50
2018-11-11T00:53:34.732Z,11.40
2018-11-11T00:58:38.009Z,11.50
2018-11-11T01:01:06.008Z,11.50
2018-11-11T01:03:34.205Z,11.50
2018-11-11T01:06:02.212Z,11.60
2018-11-11T01:08:34.925Z,11.60
2018-11-11T01:11:02.967Z,11.70
2018-11-11T01:13:31.898Z,11.70
2018-11-11T01:16:00.348Z,11.80
2018-11-11T01:18:28.394Z,11.80
2018-11-11T01:20:56.363Z,11.80
2018-11-11T01:23:24.459Z,11.80
2018-11-11T01:25:52.465Z,11.80
2018-11-11T01:28:22.734Z,11.90
2018-11-11T01:30:51.831Z,11.80
2018-11-11T01:33:19.762Z,11.90
2018-11-11T01:35:48.418Z,11.90
2018-11-11T01:38:17.125Z,11.90
2018-11-11T01:40:45.194Z,11.90
2018-11-11T01:43:13.728Z,11.90
2018-11-11T01:45:42.239Z,11.90
2018-11-11T01:48:10.290Z,11.90
2018-11-11T01:53:12.504Z,11.90
2018-11-11T01:55:41.239Z,11.90
2018-11-11T01:58:10.366Z,11.80
2018-11-11T02:00:38.465Z,11.80
2018-11-11T02:03:06.439Z,11.70
2018-11-11T02:05:34.418Z,11.60
2018-11-11T02:08:02.335Z,11.60
2018-11-11T02:10:33.843Z,11.50
2018-11-11T02:13:01.830Z,11.60
2018-11-11T02:15:29.874Z,11.60
2018-11-11T02:17:58.413Z,11.60
2018-11-11T02:20:26.520Z,11.60
2018-11-11T02:22:54.441Z,11.60
2018-11-11T02:25:37.610Z,11.50
2018-11-11T02:28:05.731Z,11.50
2018-11-11T02:30:58.700Z,11.50
2018-11-11T02:33:26.749Z,11.50
2018-11-11T02:35:54.687Z,11.50
2018-11-11T02:38:22.563Z,11.50
2018-11-11T02:40:50.521Z,11.50
2018-11-11T02:43:18.263Z,11.50
2018-11-11T02:45:47.642Z,11.50
2018-11-11T02:48:15.399Z,11.50
2018-11-11T02:50:43.296Z,11.50
2018-11-11T02:53:19.137Z,11.50
2018-11-11T02:55:46.951Z,11.50
2018-11-11T02:58:14.672Z,11.60
2018-11-11T03:00:52.065Z,11.60
2018-11-11T03:03:20.624Z,11.50
2018-11-11T03:05:56.181Z,11.50
2018-11-11T03:08:25.872Z,11.50
2018-11-11T03:11:08.041Z,11.50
2018-11-11T03:13:35.880Z,11.50
2018-11-11T03:16:18.951Z,11.50
2018-11-11T03:18:46.994Z,11.50
2018-11-11T03:21:24.550Z,11.50
2018-11-11T03:23:52.308Z,11.50
2018-11-11T03:26:32.788Z,11.50
2018-11-11T03:29:00.531Z,11.40
2018-11-11T03:31:45.499Z,11.50
2018-11-11T03:34:13.557Z,11.50
2018-11-11T03:36:41.258Z,11.50
2018-11-11T03:39:09.737Z,11.50
2018-11-11T03:41:37.931Z,11.50
2018-11-11T03:44:05.736Z,11.50
2018-11-11T03:46:33.425Z,11.50
2018-11-11T03:49:01.329Z,11.50
2018-11-11T03:51:29.070Z,11.60
2018-11-11T03:53:56.776Z,11.60
2018-11-11T03:58:57.592Z,11.70
2018-11-11T04:01:25.348Z,11.70
2018-11-11T04:03:53.025Z,11.70
2018-11-11T04:06:20.867Z,11.70
2018-11-11T04:08:53.009Z,11.70
2018-11-11T04:11:20.685Z,11.70
2018-11-11T04:13:51.454Z,11.70
2018-11-11T04:16:19.135Z,11.70
2018-11-11T04:18:46.813Z,11.70
2018-11-11T04:21:14.718Z,11.70
2018-11-11T04:23:42.406Z,11.70
2018-11-11T04:26:10.166Z,11.70
2018-11-11T04:28:37.869Z,11.80
2018-11-11T04:31:06.244Z,11.80
2018-11-11T04:33:33.961Z,11.80
2018-11-11T04:36:05.306Z,11.80
2018-11-11T04:38:33.003Z,11.80
2018-11-11T04:41:13.398Z,11.80
2018-11-11T04:43:41.106Z,11.80
2018-11-11T04:51:51.201Z,11.90
2018-11-11T04:54:19.511Z,11.90
2018-11-11T04:56:47.582Z,11.90
2018-11-11T04:59:15.633Z,11.90
2018-11-11T05:01:49.681Z,11.90
2018-11-11T05:04:17.765Z,12.00
2018-11-11T05:06:59.714Z,11.90
2018-11-11T05:09:27.783Z,11.90
2018-11-11T05:12:08.025Z,11.90
2018-11-11T05:14:36.065Z,11.90
2018-11-11T05:19:49.456Z,11.80
2018-11-11T05:22:25.708Z,11.80
2018-11-11T05:24:54.566Z,11.80
2018-11-11T05:27:31.223Z,11.80
2018-11-11T05:30:00.660Z,11.80
2018-11-11T05:32:43.367Z,11.80
2018-11-11T05:35:12.199Z,11.90
2018-11-11T05:37:51.886Z,11.90
2018-11-11T05:40:20.014Z,11.90
2018-11-11T05:43:01.949Z,11.90
2018-11-11T05:45:29.974Z,11.90
2018-11-11T05:48:05.642Z,11.90
2018-11-11T05:50:33.820Z,11.90
2018-11-11T05:53:01.890Z,11.90
2018-11-11T05:55:30.957Z,11.90
2018-11-11T05:57:59.037Z,11.80
2018-11-11T06:03:01.285Z,11.70
2018-11-11T06:05:29.312Z,11.70
2018-11-11T06:07:57.478Z,11.60
2018-11-11T06:10:25.535Z,11.60
2018-11-11T06:12:56.801Z,11.50
2018-11-11T06:15:24.840Z,11.30
2018-11-11T06:17:52.900Z,11.30
2018-11-11T06:20:20.985Z,11.30
2018-11-11T06:22:48.976Z,11.20
2018-11-11T06:25:17.107Z,11.10
2018-11-11T06:27:46.575Z,11.20
2018-11-11T06:33:06.614Z,11.00
2018-11-11T06:35:34.435Z,11.00
2018-11-11T06:38:04.104Z,10.90
2018-11-11T06:40:31.880Z,10.90
2018-11-11T06:42:59.779Z,10.80
2018-11-11T06:45:27.709Z,10.70
2018-11-11T06:47:56.037Z,10.70
2018-11-11T06:52:57.886Z,10.70
2018-11-11T06:55:25.728Z,10.80
2018-11-11T06:57:53.635Z,10.80
2018-11-11T07:00:21.594Z,10.90
2018-11-11T07:02:55.080Z,10.90
2018-11-11T07:05:23.374Z,10.90
2018-11-11T07:07:51.421Z,11.00
2018-11-11T07:10:19.675Z,11.00
2018-11-11T07:12:47.769Z,11.00
2018-11-11T07:15:16.566Z,11.10
2018-11-11T07:17:44.656Z,11.10
2018-11-11T07:20:12.746Z,11.20
2018-11-11T07:22:40.751Z,11.20
2018-11-11T07:25:08.852Z,11.20
2018-11-11T07:27:42.789Z,11.30
2018-11-11T07:30:10.925Z,11.30
2018-11-11T07:32:38.976Z,11.40
2018-11-11T07:35:08.421Z,11.40
2018-11-11T07:37:36.661Z,11.50
2018-11-11T07:40:04.996Z,11.50
2018-11-11T07:42:33.275Z,11.50
2018-11-11T07:45:13.615Z,11.50
2018-11-11T07:47:41.811Z,11.60
2018-11-11T07:52:45.016Z,11.60
2018-11-11T07:55:16.406Z,11.70
2018-11-11T07:57:44.374Z,11.70
2018-11-11T08:00:16.893Z,11.80
2018-11-11T08:02:44.586Z,11.90
2018-11-11T08:05:15.535Z,11.90
2018-11-11T08:07:43.251Z,12.00
2018-11-11T08:10:17.045Z,12.10
2018-11-11T08:12:49.191Z,12.10
2018-11-11T08:15:16.976Z,12.20
2018-11-11T08:17:47.261Z,12.20
2018-11-11T08:20:15.029Z,12.30
2018-11-11T08:22:42.771Z,12.40
2018-11-11T08:25:11.287Z,12.50
2018-11-11T08:27:39.173Z,12.60
2018-11-11T08:30:07.413Z,12.70
2018-11-11T08:32:38.967Z,12.70
2018-11-11T08:35:07.357Z,12.70
2018-11-11T08:37:35.100Z,12.70
2018-11-11T08:40:03.009Z,12.60
2018-11-11T08:45:06.201Z,12.60
2018-11-11T08:47:37.860Z,12.60
2018-11-11T08:50:06.699Z,12.50
2018-11-11T08:52:34.460Z,12.50
2018-11-11T08:55:02.244Z,12.50
2018-11-11T08:57:30.012Z,12.40
2018-11-11T08:59:57.769Z,12.40
2018-11-11T09:02:26.469Z,12.40
2018-11-11T09:04:54.443Z,12.40
2018-11-11T09:07:22.845Z,12.50
2018-11-11T09:09:50.608Z,12.60
2018-11-11T09:12:18.345Z,12.70
2018-11-11T09:14:46.105Z,12.90
2018-11-11T09:17:13.881Z,13.00
2018-11-11T09:19:41.826Z,13.20
2018-11-11T09:22:09.975Z,13.30
2018-11-11T09:24:47.784Z,13.40
2018-11-11T09:27:16.375Z,13.60
2018-11-11T09:29:44.340Z,13.90
2018-11-11T09:32:12.361Z,14.10
2018-11-11T09:34:41.822Z,14.20
2018-11-11T09:37:09.913Z,14.20
2018-11-11T09:39:37.672Z,14.30
2018-11-11T09:44:40.729Z,14.30
2018-11-11T09:47:09.341Z,14.30
2018-11-11T09:49:37.101Z,14.40
2018-11-11T09:52:05.005Z,14.30
2018-11-11T09:54:33.301Z,14.30
2018-11-11T09:57:01.739Z,14.20
2018-11-11T09:59:29.504Z,14.20
2018-11-11T10:01:57.989Z,14.10
2018-11-11T10:04:29.700Z,14.20
2018-11-11T10:07:05.594Z,14.20
2018-11-11T10:09:42.750Z,14.20
2018-11-11T10:12:15.941Z,14.20
2018-11-11T10:14:54.757Z,14.10
2018-11-11T10:17:30.228Z,14.10
2018-11-11T10:20:11.465Z,14.10
2018-11-11T10:22:48.539Z,14.10
2018-11-11T10:25:21.810Z,14.10
2018-11-11T10:28:00.677Z,14.20
2018-11-11T10:30:33.953Z,14.40
2018-11-11T10:33:21.224Z,14.70
2018-11-11T10:35:53.853Z,14.80
2018-11-11T10:38:33.775Z,15.00
2018-11-11T10:41:04.366Z,15.00
2018-11-11T10:44:02.808Z,15.10
2018-11-11T10:46:34.669Z,15.20
2018-11-11T10:49:06.312Z,15.30
2018-11-11T10:51:34.181Z,15.30
2018-11-11T10:54:06.039Z,15.20
2018-11-11T10:56:34.085Z,15.10
2018-11-11T10:59:01.866Z,15.10
2018-11-11T11:01:38.845Z,15.10
2018-11-11T11:04:06.992Z,15.00
2018-11-11T11:06:40.298Z,15.00
2018-11-11T11:09:12.649Z,15.10
2018-11-11T11:11:41.581Z,15.10
2018-11-11T11:14:09.601Z,15.10
2018-11-11T11:16:37.989Z,15.00
2018-11-11T11:19:06.077Z,15.00
2018-11-11T11:21:33.929Z,14.90
2018-11-11T11:24:01.780Z,14.90
2018-11-11T11:26:29.856Z,14.90
2018-11-11T11:29:03.807Z,14.90
2018-11-11T11:31:35.124Z,14.90
2018-11-11T11:34:03.487Z,14.90
2018-11-11T11:36:45.170Z,14.90
2018-11-11T11:39:12.958Z,15.10
2018-11-11T11:41:48.350Z,15.30
2018-11-11T11:44:16.283Z,15.30
2018-11-11T11:46:55.344Z,15.30
2018-11-11T11:49:23.206Z,15.30
2018-11-11T11:52:03.650Z,15.20
2018-11-11T11:54:32.254Z,15.20
2018-11-11T11:57:09.210Z,15.20
2018-11-11T11:59:37.085Z,15.10
2018-11-11T12:02:17.252Z,15.10
2018-11-11T12:04:45.322Z,15.10
2018-11-11T12:07:23.356Z,15.00
2018-11-11T12:09:54.817Z,14.90
2018-11-11T12:12:33.992Z,14.90
2018-11-11T12:15:02.421Z,14.90
2018-11-11T12:17:38.987Z,15.00
2018-11-11T12:20:07.304Z,15.00
2018-11-11T12:22:46.443Z,15.10
2018-11-11T12:25:14.222Z,15.20
2018-11-11T12:27:56.765Z,15.30
2018-11-11T12:30:27.100Z,15.40
2018-11-11T12:32:55.372Z,15.30
2018-11-11T12:35:23.234Z,15.20
2018-11-11T12:38:03.928Z,15.20
2018-11-11T12:40:32.419Z,15.10
2018-11-11T12:43:00.231Z,15.20
2018-11-11T12:45:28.293Z,15.10
2018-11-11T12:48:02.154Z,15.10
2018-11-11T12:50:30.144Z,15.10
2018-11-11T12:53:08.018Z,15.00
2018-11-11T12:55:35.941Z,15.00
2018-11-11T12:58:08.299Z,14.90
2018-11-11T13:00:36.219Z,14.80
2018-11-11T13:03:07.338Z,14.60
2018-11-11T13:05:35.674Z,14.40
2018-11-11T13:08:09.636Z,14.10
2018-11-11T13:10:37.469Z,13.90
2018-11-11T13:13:10.029Z,13.70
2018-11-11T13:15:37.849Z,13.50
2018-11-11T13:18:06.002Z,13.30
2018-11-11T13:20:33.861Z,13.20
2018-11-11T13:23:10.205Z,13.10
2018-11-11T13:25:38.041Z,13.00
2018-11-11T13:28:10.917Z,12.90
2018-11-11T13:30:44.360Z,12.80
2018-11-11T13:33:12.409Z,12.70
2018-11-11T13:35:41.235Z,12.60
2018-11-11T13:38:09.170Z,12.40
2018-11-11T13:40:37.182Z,12.20
2018-11-11T13:43:05.134Z,12.10
2018-11-11T13:45:33.741Z,12.00
2018-11-11T13:48:06.407Z,11.90
2018-11-11T13:50:34.223Z,11.90
2018-11-11T13:53:12.796Z,11.80
2018-11-11T13:55:40.783Z,11.80
2018-11-11T13:58:20.979Z,11.80
2018-11-11T14:00:48.898Z,11.80
2018-11-11T14:03:26.185Z,11.80
2018-11-11T14:05:54.620Z,11.80
2018-11-11T14:08:37.407Z,11.80
2018-11-11T14:11:08.786Z,11.70
2018-11-11T14:13:36.916Z,11.70
2018-11-11T14:16:04.704Z,11.70
2018-11-11T14:18:33.301Z,11.70
2018-11-11T14:21:01.373Z,11.70
2018-11-11T14:23:35.592Z,11.70
2018-11-11T14:26:03.385Z,11.70
2018-11-11T14:28:41.881Z,11.70
2018-11-11T14:31:09.986Z,11.70
2018-11-11T14:33:37.965Z,11.70
2018-11-11T14:38:53.252Z,11.90
2018-11-11T14:41:21.383Z,12.10
2018-11-11T14:43:50.783Z,12.40
2018-11-11T14:46:26.033Z,12.40
2018-11-11T14:48:54.071Z,12.50
2018-11-11T14:51:22.349Z,12.50
2018-11-11T14:53:50.574Z,12.50
2018-11-11T14:56:18.499Z,12.50
2018-11-11T14:58:53.596Z,12.40
2018-11-11T15:01:21.858Z,12.40
2018-11-11T15:03:50.011Z,12.40
2018-11-11T15:06:25.793Z,12.40
2018-11-11T15:08:54.959Z,12.40
2018-11-11T15:11:22.992Z,12.40
2018-11-11T15:13:57.854Z,12.40
2018-11-11T15:16:26.291Z,12.30
2018-11-11T15:18:54.448Z,12.30
2018-11-11T15:21:23.208Z,12.30
2018-11-11T15:23:51.423Z,12.30
2018-11-11T15:26:20.191Z,12.30
2018-11-11T15:28:48.590Z,12.30
2018-11-11T15:31:17.523Z,12.30
2018-11-11T15:33:48.123Z,12.30
2018-11-11T15:36:16.100Z,12.30
2018-11-11T15:38:44.101Z,12.30
2018-11-11T15:41:16.450Z,12.30
2018-11-11T15:43:44.839Z,12.30
2018-11-11T15:46:12.766Z,12.20
2018-11-11T15:48:47.266Z,12.20
2018-11-11T15:51:15.156Z,12.10
2018-11-11T15:53:43.144Z,12.10
2018-11-11T15:56:19.611Z,12.00
2018-11-11T15:58:47.611Z,11.90
2018-11-11T16:01:15.640Z,11.90
2018-11-11T16:03:48.482Z,11.80
2018-11-11T16:06:16.441Z,11.80
2018-11-11T16:08:44.538Z,11.70
2018-11-11T16:11:19.342Z,11.70
2018-11-11T16:13:47.404Z,11.70
2018-11-11T16:16:15.559Z,11.70
2018-11-11T16:18:48.452Z,11.70
2018-11-11T16:21:16.518Z,11.70
2018-11-11T16:23:44.716Z,11.60
2018-11-11T16:26:23.024Z,11.60
2018-11-11T16:28:51.174Z,11.60
2018-11-11T16:31:19.223Z,11.60
2018-11-11T16:33:53.285Z,11.60
2018-11-11T16:36:21.394Z,11.60
2018-11-11T16:38:50.156Z,11.70
2018-11-11T16:41:22.612Z,11.70
2018-11-11T16:43:50.498Z,11.70
2018-11-11T16:46:18.658Z,11.70
2018-11-11T16:48:56.805Z,11.70
2018-11-11T16:51:24.874Z,11.70
2018-11-11T16:53:53.033Z,11.70
2018-11-11T16:56:25.812Z,11.80
2018-11-11T16:58:53.757Z,11.80
2018-11-11T17:01:21.779Z,11.80
2018-11-11T17:03:58.089Z,11.80
2018-11-11T17:06:26.049Z,11.90
2018-11-11T17:08:54.333Z,11.90
2018-11-11T17:11:29.121Z,11.90
2018-11-11T17:13:57.140Z,11.90
2018-11-11T17:16:25.095Z,11.90
2018-11-11T17:18:54.900Z,11.90
2018-11-11T17:21:23.175Z,12.00
2018-11-11T17:23:51.301Z,12.00
2018-11-11T17:26:27.564Z,11.90
2018-11-11T17:31:59.835Z,12.00
2018-11-11T17:34:31.842Z,12.00
2018-11-11T17:36:59.999Z,12.00
2018-11-11T17:39:36.757Z,12.10
2018-11-11T17:42:05.300Z,12.10
2018-11-11T17:44:33.525Z,12.10
2018-11-11T17:47:07.644Z,12.10
2018-11-11T17:49:36.049Z,12.20
2018-11-11T17:52:04.232Z,12.20
2018-11-11T17:54:37.869Z,12.10
2018-11-11T17:57:05.964Z,12.10
2018-11-11T17:59:34.092Z,12.10
2018-11-11T18:02:07.995Z,12.00
2018-11-11T18:04:36.095Z,11.80
2018-11-11T18:07:04.212Z,11.70
2018-11-11T18:09:38.148Z,11.60
2018-11-11T18:12:06.220Z,11.50
2018-11-11T18:14:34.381Z,11.40
2018-11-11T18:17:06.486Z,11.30
2018-11-11T18:19:34.851Z,11.30
2018-11-11T18:22:02.959Z,11.20
2018-11-11T18:24:39.209Z,11.20
2018-11-11T18:27:07.563Z,11.20
2018-11-11T18:29:36.612Z,11.20
2018-11-11T18:32:10.761Z,11.20
2018-11-11T18:34:39.249Z,11.20
2018-11-11T18:37:07.355Z,11.20
2018-11-11T18:39:38.694Z,11.10
2018-11-11T18:42:07.008Z,11.20
2018-11-11T18:44:35.204Z,11.20
2018-11-11T18:47:07.724Z,11.10
2018-11-11T18:49:35.853Z,11.10
2018-11-11T18:52:04.062Z,11.10
2018-11-11T18:54:37.805Z,11.10
2018-11-11T18:57:06.280Z,11.10
2018-11-11T18:59:34.685Z,11.00
2018-11-11T19:02:12.364Z,11.10
2018-11-11T19:04:40.376Z,11.10
2018-11-11T19:07:08.477Z,11.10
2018-11-11T19:09:38.174Z,11.10
2018-11-11T19:12:06.580Z,11.10
2018-11-11T19:14:34.626Z,11.00
2018-11-11T19:17:09.154Z,11.00
2018-11-11T19:19:37.307Z,11.10
2018-11-11T19:22:05.743Z,11.10
2018-11-11T19:24:38.890Z,11.10
2018-11-11T19:27:07.159Z,11.00
2018-11-11T19:29:35.348Z,11.00
2018-11-11T19:32:09.033Z,11.00
2018-11-11T19:34:37.322Z,11.00
2018-11-11T19:37:05.845Z,11.00
2018-11-11T19:39:41.485Z,10.90
2018-11-11T19:42:09.727Z,10.90
2018-11-11T19:44:38.151Z,10.90
2018-11-11T19:47:10.264Z,10.90
2018-11-11T19:49:38.445Z,10.80
2018-11-11T19:52:06.694Z,10.90
2018-11-11T19:54:34.875Z,10.80
2018-11-11T19:57:10.309Z,10.80
2018-11-11T19:59:39.552Z,10.80
2018-11-11T20:02:08.323Z,10.70
2018-11-11T20:04:36.687Z,10.70
2018-11-11T20:07:10.309Z,10.70
2018-11-11T20:09:38.610Z,10.70
2018-11-11T20:14:46.598Z,10.60
2018-11-11T20:19:47.920Z,10.60
2018-11-11T20:24:49.652Z,10.60
2018-11-11T20:27:18.632Z,10.60
2018-11-11T20:29:47.264Z,10.60
2018-11-11T20:32:15.427Z,10.60
2018-11-11T20:34:43.712Z,10.50
2018-11-11T20:37:11.946Z,10.50
2018-11-11T20:39:39.970Z,10.50
2018-11-11T20:42:11.126Z,10.50
2018-11-11T20:44:39.177Z,10.60
2018-11-11T20:47:07.253Z,10.50
2018-11-11T20:49:35.150Z,10.60
2018-11-11T20:52:07.505Z,10.50
2018-11-11T20:54:35.559Z,10.50
2018-11-11T20:57:03.527Z,10.50
2018-11-11T20:59:31.472Z,10.50
2018-11-11T21:01:59.428Z,10.50
2018-11-11T21:04:27.439Z,10.50
2018-11-11T21:06:55.482Z,10.50
2018-11-11T21:09:27.631Z,10.50
2018-11-11T21:11:55.811Z,10.50
2018-11-11T21:16:58.227Z,10.50
2018-11-11T21:19:26.847Z,10.50
2018-11-11T21:21:54.970Z,10.40
2018-11-11T21:24:23.123Z,10.40
2018-11-11T21:29:24.763Z,10.40
2018-11-11T21:31:54.348Z,10.30
2018-11-11T21:34:22.628Z,10.30
2018-11-11T21:36:50.915Z,10.30
2018-11-11T21:39:20.379Z,10.30
2018-11-11T21:41:49.012Z,10.30
2018-11-11T21:44:17.258Z,10.40
2018-11-11T21:46:45.566Z,10.40
2018-11-11T21:49:13.868Z,10.40
2018-11-11T21:51:42.003Z,10.40
2018-11-11T21:54:10.275Z,10.40
2018-11-11T22:00:19.055Z,10.50
2018-11-11T22:02:48.163Z,10.50
2018-11-11T22:05:16.391Z,10.50
2018-11-11T22:07:44.602Z,10.50
2018-11-11T22:10:14.768Z,10.40
2018-11-11T22:12:43.391Z,10.40
2018-11-11T22:15:12.632Z,10.40
2018-11-11T22:17:41.219Z,10.40
2018-11-11T22:20:10.034Z,10.40
2018-11-11T22:22:38.177Z,10.40
2018-11-11T22:25:06.318Z,10.40
2018-11-11T22:27:34.654Z,10.40
2018-11-11T22:30:02.788Z,10.40
2018-11-11T22:32:31.108Z,10.40
2018-11-11T22:34:59.293Z,10.40
2018-11-11T22:37:28.690Z,10.40
2018-11-11T22:39:56.953Z,10.50
2018-11-11T22:42:25.443Z,10.50
2018-11-11T22:44:54.664Z,10.50
2018-11-11T22:47:22.868Z,10.60
2018-11-11T22:49:51.069Z,10.70
2018-11-11T22:52:19.424Z,10.70
2018-11-11T22:54:51.986Z,10.80
2018-11-11T22:57:21.369Z,10.90
2018-11-11T22:59:49.557Z,10.90
2018-11-11T23:02:17.859Z,10.90
2018-11-11T23:07:19.385Z,10.80
2018-11-11T23:09:47.442Z,10.80
2018-11-11T23:12:15.764Z,10.80
2018-11-11T23:14:43.859Z,10.70
2018-11-11T23:17:13.515Z,10.70
2018-11-11T23:19:41.784Z,10.70
2018-11-11T23:22:09.873Z,10.70
2018-11-11T23:24:37.875Z,10.70
2018-11-11T23:27:06.095Z,10.70
2018-11-11T23:29:34.335Z,10.70
2018-11-11T23:32:02.412Z,10.60
2018-11-11T23:34:30.527Z,10.60
2018-11-11T23:36:58.638Z,10.60
2018-11-11T23:39:26.781Z,10.60
2018-11-11T23:41:54.682Z,10.60
2018-11-11T23:44:22.753Z,10.60
2018-11-11T23:46:50.764Z,10.60
2018-11-11T23:49:19.323Z,10.60
2018-11-11T23:54:24.603Z,10.60
2018-11-11T23:56:58.744Z,10.60
2018-11-11T23:59:26.537Z,10.50
